Time;durP1;ratioP1;P1;durP2;ratioP2;P2;SDS_P1;SDS_P2;PMS_P1;PMS_P2;Temp;Humidity;BMP_temperature;BMP_pressure;BME280_temperature;BME280_humidity;BME280_pressure;Samples;Min_cycle;Max_cycle;Signal;HPM_P1;HPM_P2
2023/10/16 00:01:11;;;;;;;1.90;1.58;;;;;;;5.78;100.00;102440.44;6217945;23;20017;-80
2023/10/16 00:03:41;;;;;;;5.10;1.95;;;;;;;5.77;100.00;102434.38;6218756;23;20084;-79
2023/10/16 00:06:12;;;;;;;4.50;2.00;;;;;;;5.76;100.00;102432.09;6166778;23;20108;-79
2023/10/16 00:08:47;;;;;;;2.42;1.60;;;;;;;5.76;100.00;102442.66;6218837;23;20051;-79
2023/10/16 00:11:16;;;;;;;4.68;2.08;;;;;;;5.73;100.00;102441.50;6191644;23;20354;-80
2023/10/16 00:13:47;;;;;;;2.33;1.88;;;;;;;5.74;100.00;102439.63;6191571;23;20017;-80
2023/10/16 00:16:16;;;;;;;4.40;2.13;;;;;;;5.75;100.00;102433.22;6165956;23;20080;-79
2023/10/16 00:18:45;;;;;;;4.18;1.65;;;;;;;5.75;100.00;102439.25;6218481;23;20088;-79
2023/10/16 00:21:13;;;;;;;5.20;1.85;;;;;;;5.76;100.00;102440.03;6218510;23;20052;-80
2023/10/16 00:23:41;;;;;;;3.83;1.40;;;;;;;5.78;100.00;102440.44;6219791;23;20024;-79
2023/10/16 00:26:19;;;;;;;3.25;1.60;;;;;;;5.81;100.00;102437.06;6219658;23;20021;-79
2023/10/16 00:29:07;;;;;;;2.60;1.67;;;;;;;5.82;100.00;102438.56;6219917;23;20013;-79
2023/10/16 00:31:35;;;;;;;4.80;1.75;;;;;;;5.82;100.00;102438.56;6219163;23;20013;-79
2023/10/16 00:34:02;;;;;;;2.90;1.65;;;;;;;5.82;100.00;102426.13;6193761;23;20510;-80
2023/10/16 00:36:30;;;;;;;2.80;1.60;;;;;;;5.82;100.00;102433.28;6167341;23;20427;-80
2023/10/16 00:39:12;;;;;;;2.30;1.40;;;;;;;5.82;100.00;102441.97;6218211;23;20039;-79
2023/10/16 00:41:46;;;;;;;2.53;1.60;;;;;;;5.82;100.00;102438.56;6192904;23;20017;-79
2023/10/16 00:44:16;;;;;;;5.30;1.48;;;;;;;5.82;100.00;102438.56;6192869;23;20414;-79
2023/10/16 00:46:48;;;;;;;4.53;1.25;;;;;;;5.79;100.00;102429.50;6192616;23;20021;-80
2023/10/16 00:49:18;;;;;;;1.35;1.20;;;;;;;5.75;100.00;102433.22;6193294;23;20028;-80
2023/10/16 00:51:47;;;;;;;2.65;1.70;;;;;;;5.72;100.00;102426.78;6193852;23;20017;-80
2023/10/16 00:54:27;;;;;;;3.70;1.40;;;;;;;5.70;100.00;102429.78;6192894;23;20021;-80
2023/10/16 00:57:07;;;;;;;1.92;1.50;;;;;;;5.69;100.00;102430.16;6193349;23;20048;-79
2023/10/16 00:59:35;;;;;;;3.80;1.60;;;;;;;5.70;100.00;102416.56;6219372;23;20016;-79
2023/10/16 01:02:36;;;;;;;2.45;1.33;;;;;;;5.74;100.00;102426.41;6194381;23;20088;-79
2023/10/16 01:04:55;;;;;;;4.53;1.90;;;;;;;5.76;100.00;102424.94;6191662;23;20072;-80
2023/10/16 01:07:23;;;;;;;7.95;2.63;;;;;;;5.80;100.00;102417.03;6219795;23;20024;-79
2023/10/16 01:09:50;;;;;;;5.05;1.75;;;;;;;5.82;100.00;102407.63;6169486;23;20047;-79
2023/10/16 01:12:20;;;;;;;2.22;1.80;;;;;;;5.85;100.00;102406.88;6193934;23;20013;-79
2023/10/16 01:14:46;;;;;;;3.55;1.85;;;;;;;5.88;100.00;102408.81;6193391;23;20017;-80
2023/10/16 01:17:13;;;;;;;5.95;1.98;;;;;;;5.91;100.00;102407.34;6193924;23;20097;-79
2023/10/16 01:19:44;;;;;;;4.43;1.67;;;;;;;5.91;100.00;102407.34;6168676;23;20017;-79
2023/10/16 01:22:13;;;;;;;3.77;1.60;;;;;;;5.93;100.00;102423.59;6219865;23;20349;-79
2023/10/16 01:24:43;;;;;;;2.50;1.60;;;;;;;5.94;100.00;102409.25;6167739;23;20315;-79
2023/10/16 01:27:25;;;;;;;4.85;2.08;;;;;;;5.97;100.00;102405.88;6193158;23;20021;-80
2023/10/16 01:29:53;;;;;;;5.82;2.33;;;;;;;6.01;100.00;102406.63;6193261;23;20013;-80
2023/10/16 01:32:20;;;;;;;2.70;1.73;;;;;;;6.03;100.00;102409.69;6192330;23;20068;-80
2023/10/16 01:34:47;;;;;;;1.73;1.63;;;;;;;6.03;100.00;102402.50;6219374;23;20044;-80
2023/10/16 01:37:17;;;;;;;2.60;2.08;;;;;;;6.05;100.00;102406.66;6192523;23;20486;-80
2023/10/16 01:39:48;;;;;;;3.72;1.75;;;;;;;6.06;100.00;102402.91;6193485;23;20245;-79
2023/10/16 01:42:18;;;;;;;4.22;2.17;;;;;;;6.08;100.00;102405.94;6219531;23;20029;-79
2023/10/16 01:44:47;;;;;;;;;;;;;;;6.13;100.00;102410.88;6193420;23;20016;-79
2023/10/16 01:47:17;;;;;;;5.15;1.80;;;;;;;6.13;100.00;102411.63;6167757;23;20011;-80
2023/10/16 01:49:50;;;;;;;7.95;2.80;;;;;;;6.15;100.00;102412.03;6192371;23;20023;-79
2023/10/16 01:52:17;;;;;;;2.13;1.92;;;;;;;6.18;100.00;102413.19;6167953;23;20447;-80
2023/10/16 01:54:46;;;;;;;5.70;2.20;;;;;;;6.18;100.00;102413.94;6192477;23;20021;-79
2023/10/16 01:57:14;;;;;;;7.88;2.67;;;;;;;6.21;100.00;102409.81;6192547;23;20600;-79
2023/10/16 01:59:43;;;;;;;5.88;2.78;;;;;;;6.22;100.00;102406.03;6219756;23;20410;-79
2023/10/16 02:02:12;;;;;;;3.20;2.17;;;;;;;6.25;100.00;102397.38;6192982;23;20020;-79
2023/10/16 02:04:40;;;;;;;5.28;2.85;;;;;;;6.27;100.00;102395.09;6167337;23;20436;-79
2023/10/16 02:07:08;;;;;;;5.07;2.55;;;;;;;6.27;100.00;102389.81;6192314;23;20526;-79
2023/10/16 02:09:36;;;;;;;4.03;2.50;;;;;;;6.30;100.00;102399.66;6167284;23;20017;-79
2023/10/16 02:12:05;;;;;;;4.50;2.65;;;;;;;6.30;100.00;102397.78;6192674;23;20017;-79
2023/10/16 02:14:37;;;;;;;4.60;2.45;;;;;;;6.30;100.00;102405.72;6219292;23;20513;-79
2023/10/16 02:17:03;;;;;;;;;;;;;;;6.29;100.00;102401.56;6219995;23;20052;-79
2023/10/16 02:19:31;;;;;;;2.47;2.30;;;;;;;6.27;100.00;102393.22;6191982;23;19927;-79
2023/10/16 02:21:58;;;;;;;6.53;2.85;;;;;;;6.25;100.00;102397.38;6219625;23;20017;-80
2023/10/16 02:24:25;;;;;;;3.42;2.50;;;;;;;6.22;100.00;102396.22;6218894;23;20084;-79
2023/10/16 02:27:02;;;;;;;4.90;2.50;;;;;;;6.19;100.00;102388.25;6192055;23;20101;-80
2023/10/16 02:29:31;;;;;;;2.97;2.20;;;;;;;6.17;100.00;102393.16;6219145;23;20013;-79
2023/10/16 02:31:58;;;;;;;5.50;2.67;;;;;;;6.14;100.00;102394.66;6193401;23;20345;-80
2023/10/16 02:34:26;;;;;;;5.72;2.40;;;;;;;6.14;100.00;102388.59;6166922;23;20021;-79
2023/10/16 02:36:54;;;;;;;8.40;2.75;;;;;;;6.10;100.00;102383.28;6192478;23;20025;-80
2023/10/16 02:39:35;;;;;;;3.83;2.67;;;;;;;6.09;100.00;102381.78;6191855;23;20044;-80
2023/10/16 02:42:14;;;;;;;8.05;2.55;;;;;;;6.07;100.00;102376.09;6219016;23;20017;-79
2023/10/16 02:44:47;;;;;;;3.40;2.60;;;;;;;6.06;100.00;102374.56;6193017;23;20420;-79
2023/10/16 02:47:25;;;;;;;6.72;2.83;;;;;;;6.05;100.00;102370.41;6192595;23;20051;-79
2023/10/16 02:49:53;;;;;;;3.50;2.65;;;;;;;6.03;100.00;102370.78;6193311;23;20084;-79
2023/10/16 02:52:19;;;;;;;5.55;2.45;;;;;;;6.02;100.00;102376.44;6218685;23;20153;-79
2023/10/16 02:54:46;;;;;;;4.68;2.15;;;;;;;6.02;100.00;102374.53;6192540;23;20445;-79
2023/10/16 02:57:14;;;;;;;3.50;2.22;;;;;;;6.03;100.00;102380.59;6166735;23;20025;-79
2023/10/16 02:59:45;;;;;;;2.53;2.13;;;;;;;6.06;100.00;102387.78;6192151;23;20060;-79
2023/10/16 03:02:17;;;;;;;2.92;2.60;;;;;;;6.09;100.00;102387.06;6219075;23;20013;-80
2023/10/16 03:04:49;;;;;;;5.65;2.30;;;;;;;6.12;100.00;102378.38;6193144;23;20017;-79
2023/10/16 03:07:15;;;;;;;10.20;2.80;;;;;;;6.15;100.00;102379.53;6167529;23;20097;-80
2023/10/16 03:09:43;;;;;;;4.15;2.80;;;;;;;6.15;100.00;102375.00;6191307;23;20023;-80
2023/10/16 03:12:10;;;;;;;4.25;2.53;;;;;;;6.17;100.00;102377.28;6219016;23;20458;-81
2023/10/16 03:14:45;;;;;;;11.10;2.75;;;;;;;6.17;100.00;102377.28;6218990;23;20017;-81
2023/10/16 03:17:19;;;;;;;9.68;2.40;;;;;;;6.17;100.00;102378.03;6218853;23;20430;-79
2023/10/16 03:19:48;;;;;;;8.10;2.50;;;;;;;6.17;100.00;102380.69;6192458;23;20023;-79
2023/10/16 03:22:16;;;;;;;4.10;2.50;;;;;;;6.19;100.00;102382.97;6218732;23;20014;-80
2023/10/16 03:24:43;;;;;;;2.45;2.25;;;;;;;6.20;100.00;102376.56;6191687;23;20391;-79
2023/10/16 03:27:10;;;;;;;3.30;2.53;;;;;;;6.21;100.00;102378.84;6218927;23;20025;-80
2023/10/16 03:29:37;;;;;;;2.42;2.22;;;;;;;6.21;100.00;102381.47;6191780;23;20080;-80
2023/10/16 03:32:04;;;;;;;3.38;2.55;;;;;;;6.22;100.00;102377.69;6192344;23;20096;-80
2023/10/16 03:34:31;;;;;;;3.53;2.35;;;;;;;6.20;100.00;102382.59;6192212;23;20020;-80
2023/10/16 03:37:05;;;;;;;4.97;2.50;;;;;;;6.21;100.00;102378.06;6192039;23;20052;-80
2023/10/16 03:39:32;;;;;;;6.20;2.55;;;;;;;6.21;100.00;102384.13;6191899;23;20072;-80
2023/10/16 03:42:02;;;;;;;4.70;3.10;;;;;;;6.25;100.00;102378.84;6219771;23;20418;-79
2023/10/16 03:44:30;;;;;;;3.78;2.42;;;;;;;6.27;100.00;102376.59;6166812;23;20017;-80
2023/10/16 03:46:57;;;;;;;3.90;2.58;;;;;;;6.28;100.00;102373.59;6192349;23;20440;-79
2023/10/16 03:49:23;;;;;;;6.82;2.88;;;;;;;6.30;100.00;102370.56;6218216;23;20017;-79
2023/10/16 03:51:52;;;;;;;2.88;2.30;;;;;;;6.34;100.00;102376.63;6167152;23;20101;-79
2023/10/16 03:54:30;;;;;;;3.92;2.53;;;;;;;6.35;100.00;102388.75;6191193;23;20013;-79
2023/10/16 03:56:59;;;;;;;3.65;2.42;;;;;;;6.37;100.00;102385.72;6219515;23;20391;-80
2023/10/16 03:59:29;;;;;;;3.78;2.78;;;;;;;6.38;100.00;102381.94;6192743;23;20021;-80
2023/10/16 04:02:04;;;;;;;4.65;2.58;;;;;;;6.39;100.00;102378.19;6193879;23;20064;-80
2023/10/16 04:04:30;;;;;;;2.78;2.50;;;;;;;6.42;100.00;102374.75;6193123;23;20399;-80
2023/10/16 04:06:58;;;;;;;6.57;2.22;;;;;;;6.42;100.00;102367.59;6220061;23;20021;-80
2023/10/16 04:09:33;;;;;;;4.75;2.40;;;;;;;6.42;100.00;102366.81;6216866;23;20021;-79
2023/10/16 04:12:04;;;;;;;7.35;2.60;;;;;;;6.39;100.00;102367.59;6220258;23;20016;-80
2023/10/16 04:14:45;;;;;;;3.95;2.35;;;;;;;6.34;100.00;102369.47;6193341;23;20024;-80
2023/10/16 04:17:11;;;;;;;4.55;2.20;;;;;;;6.31;100.00;102370.19;6219916;23;20350;-80
2023/10/16 04:19:59;;;;;;;3.15;2.35;;;;;;;6.34;100.00;102371.34;6219924;23;20482;-79
2023/10/16 04:22:27;;;;;;;2.13;1.92;;;;;;;6.35;100.00;102372.88;6191974;23;20013;-79
2023/10/16 04:24:54;;;;;;;2.88;2.30;;;;;;;6.37;100.00;102370.59;6220056;23;20043;-79
2023/10/16 04:27:33;;;;;;;3.67;2.28;;;;;;;6.38;100.00;102361.53;6219574;23;20423;-79
2023/10/16 04:38:27;;;;;;;4.75;2.03;;;;;;;6.45;100.00;102358.16;6219346;23;20021;-80
2023/10/16 04:43:49;;;;;;;1.98;1.88;;;;;;;6.49;100.00;102351.75;6219630;23;20012;-80
2023/10/16 04:46:23;;;;;;;3.25;2.70;;;;;;;6.51;100.00;102354.78;6219686;23;20068;-79
2023/10/16 04:48:54;;;;;;;2.17;2.08;;;;;;;6.55;100.00;102354.81;6220262;23;20051;-79
2023/10/16 04:51:36;;;;;;;8.63;2.13;;;;;;;6.59;100.00;102355.56;6218757;23;20044;-81
2023/10/16 04:54:16;;;;;;;4.45;2.00;;;;;;;6.59;100.00;102343.09;6219595;23;20240;-78
2023/10/16 04:57:18;;;;;;;2.35;2.13;;;;;;;6.61;100.00;102340.09;6192668;23;20025;-78
2023/10/16 05:00:00;;;;;;;3.47;2.17;;;;;;;6.62;100.00;102344.25;6219918;23;20036;-78
2023/10/16 05:02:52;;;;;;;2.70;2.50;;;;;;;6.61;100.00;102340.84;6219452;23;20451;-78
2023/10/16 05:11:23;;;;;;;3.30;2.17;;;;;;;6.63;100.00;102330.66;6219431;23;20017;-79
2023/10/16 05:13:39;;;;;;;2.25;2.05;;;;;;;6.64;100.00;102328.75;6192513;23;20428;-78
2023/10/16 05:19:02;;;;;;;1.80;1.70;;;;;;;6.67;100.00;102326.13;6193104;23;20088;-79
2023/10/16 06:16:32;;;;;;;3.67;2.60;;;;;;;6.75;100.00;102334.84;6218843;23;20360;-78
2023/10/16 06:18:59;;;;;;;5.07;2.30;;;;;;;6.76;100.00;102336.38;6166826;23;20443;-78
2023/10/16 06:21:25;;;;;;;2.95;2.20;;;;;;;6.78;100.00;102336.00;6218661;23;20040;-78
2023/10/16 06:23:52;;;;;;;3.80;2.40;;;;;;;6.79;100.00;102334.84;6192779;23;20017;-77
2023/10/16 06:26:21;;;;;;;3.70;3.03;;;;;;;6.80;100.00;102334.47;6192277;23;20368;-79
2023/10/16 06:28:49;;;;;;;3.03;2.42;;;;;;;6.81;100.00;102338.63;6193231;23;20462;-79
2023/10/16 06:31:22;;;;;;;5.45;2.90;;;;;;;6.83;100.00;102339.00;6219576;23;20436;-81
2023/10/16 06:33:55;;;;;;;2.90;2.58;;;;;;;6.84;100.00;102337.13;6219055;23;20424;-81
2023/10/16 06:36:28;;;;;;;3.25;2.58;;;;;;;6.84;100.00;102342.41;6218592;23;20237;-81
2023/10/16 06:38:58;;;;;;;4.45;2.42;;;;;;;6.86;100.00;102348.84;6192516;23;20095;-82
2023/10/16 06:41:24;;;;;;;5.10;2.80;;;;;;;6.88;100.00;102343.94;6218588;23;20013;-83
2023/10/16 06:43:51;;;;;;;5.00;2.83;;;;;;;6.92;100.00;102347.34;6219271;23;20485;-81
2023/10/16 06:46:23;;;;;;;4.57;3.05;;;;;;;6.94;100.00;102342.44;6219001;23;20064;-80
2023/10/16 06:48:53;;;;;;;3.75;3.08;;;;;;;6.97;100.00;102340.94;6218734;23;20492;-80
2023/10/16 06:51:26;;;;;;;3.60;2.92;;;;;;;7.00;100.00;102340.19;6218509;23;20013;-80
2023/10/16 06:54:01;;;;;;;3.45;3.15;;;;;;;7.03;100.00;102344.75;6219740;23;20655;-81
2023/10/16 06:56:30;;;;;;;3.38;2.80;;;;;;;7.08;100.00;102348.91;6192065;23;20021;-80
2023/10/16 06:58:58;;;;;;;6.03;2.90;;;;;;;7.12;100.00;102347.03;6192345;23;20025;-79
2023/10/16 07:01:25;;;;;;;6.88;3.00;;;;;;;7.16;100.00;102350.44;6218111;23;20024;-81
2023/10/16 07:03:56;;;;;;;3.78;2.40;;;;;;;7.23;100.00;102339.84;6220034;23;20041;-82
2023/10/16 07:06:32;;;;;;;2.72;2.53;;;;;;;7.29;100.00;102348.91;6193122;23;20149;-82
2023/10/16 07:09:06;;;;;;;5.40;2.33;;;;;;;7.35;100.00;102350.81;6220426;23;20023;-82
2023/10/16 07:11:33;;;;;;;3.17;2.20;;;;;;;7.41;100.00;102350.44;6221239;23;20848;-81
2023/10/16 07:14:00;;;;;;;7.57;2.40;;;;;;;7.45;100.00;102349.31;6193824;23;20043;-81
2023/10/16 07:16:26;;;;;;;2.28;2.03;;;;;;;7.51;100.00;102358.41;6191540;23;20025;-81
2023/10/16 07:18:57;;;;;;;4.78;2.38;;;;;;;7.54;100.00;102355.00;6218764;23;20455;-82
2023/10/16 07:21:25;;;;;;;4.32;2.30;;;;;;;7.57;100.00;102356.16;6216361;23;20021;-80
2023/10/16 07:23:54;;;;;;;4.68;2.25;;;;;;;7.61;100.00;102352.34;6218989;23;20059;-80
2023/10/16 07:26:24;;;;;;;7.50;2.60;;;;;;;7.67;100.00;102358.78;6218105;23;20021;-81
2023/10/16 07:28:51;;;;;;;3.13;2.30;;;;;;;7.73;100.00;102356.50;6218782;23;20013;-82
2023/10/16 07:31:19;;;;;;;3.35;2.28;;;;;;;7.79;100.00;102360.28;6218151;23;20013;-82
2023/10/16 07:33:50;;;;;;;9.10;2.65;;;;;;;7.84;100.00;102359.16;6192985;23;20017;-82
2023/10/16 07:36:17;;;;;;;2.35;2.15;;;;;;;7.89;100.00;102361.41;6220325;23;20422;-83
2023/10/16 07:38:45;;;;;;;4.82;2.42;;;;;;;7.94;100.00;102361.78;6220479;23;20166;-82
2023/10/16 07:41:18;;;;;;;8.27;2.42;;;;;;;8.00;100.00;102354.19;6193174;23;20017;-81
2023/10/16 07:43:48;;;;;;;2.50;2.17;;;;;;;8.11;100.00;102359.47;6220135;23;20013;-83
2023/10/16 07:46:27;;;;;;;3.35;2.20;;;;;;;8.20;100.00;102352.63;6191898;23;20044;-80
2023/10/16 07:48:56;;;;;;;2.67;2.47;;;;;;;8.32;100.00;102354.91;6193813;23;20013;-81
2023/10/16 07:51:27;;;;;;;2.40;2.13;;;;;;;8.42;100.00;102348.03;6224527;23;20092;-83
2023/10/16 07:53:56;;;;;;;;;;;;;;;8.52;100.00;102347.22;6200561;23;20104;-88
2023/10/16 07:58:54;;;;;;;5.60;2.45;;;;;;;8.71;100.00;102347.91;6193371;23;20340;-78
2023/10/16 08:01:58;;;;;;;3.17;2.30;;;;;;;8.81;100.00;102353.16;6192129;23;20457;-79
2023/10/16 08:06:47;;;;;;;1.98;1.77;;;;;;;8.94;100.00;102353.47;6219208;23;20022;-79
2023/10/16 08:11:57;;;;;;;2.40;2.08;;;;;;;9.18;100.00;102359.78;6192350;23;20543;-80
2023/10/16 08:14:30;;;;;;;3.90;2.50;;;;;;;9.26;100.00;102351.34;6166752;23;20023;-79
2023/10/16 08:17:05;;;;;;;4.60;2.20;;;;;;;9.33;100.00;102355.84;6192365;23;20052;-79
2023/10/16 08:19:42;;;;;;;5.65;2.20;;;;;;;9.42;100.00;102361.50;6217633;23;20021;-79
2023/10/16 08:22:14;;;;;;;4.00;2.30;;;;;;;9.58;100.00;102355.69;6192389;23;20014;-79
2023/10/16 08:24:57;;;;;;;2.60;2.03;;;;;;;9.69;100.00;102366.94;6166610;23;20013;-79
2023/10/16 08:30:19;;;;;;;3.05;1.92;;;;;;;9.81;100.00;102368.38;6191566;23;20108;-80
2023/10/16 08:35:19;;;;;;;2.63;2.42;;;;;;;9.86;100.00;102362.63;6190992;23;20021;-80
2023/10/16 08:37:56;;;;;;;3.22;2.30;;;;;;;9.85;100.00;102355.81;6219013;23;20025;-79
2023/10/16 08:40:33;;;;;;;5.03;2.00;;;;;;;9.82;100.00;102359.25;6216716;23;20019;-79
2023/10/16 08:43:02;;;;;;;4.63;1.77;;;;;;;9.90;100.00;102358.78;6218459;23;20461;-79
2023/10/16 08:45:32;;;;;;;5.93;1.88;;;;;;;10.04;100.00;102366.59;6191110;23;20013;-80
2023/10/16 08:48:05;;;;;;;2.72;2.05;;;;;;;10.11;100.00;102360.47;6191820;23;20451;-78
2023/10/16 08:50:41;;;;;;;5.57;1.80;;;;;;;10.14;100.00;102362.34;6192340;23;20023;-78
2023/10/16 08:53:30;;;;;;;2.90;1.70;;;;;;;10.16;100.00;102362.69;6216814;23;20021;-79
2023/10/16 08:56:09;;;;;;;3.10;1.70;;;;;;;10.26;100.00;102364.50;6191897;23;20013;-78
2023/10/16 08:58:45;;;;;;;3.40;2.17;;;;;;;10.31;100.00;102364.09;6218071;23;20439;-78
2023/10/16 09:01:16;;;;;;;5.40;2.05;;;;;;;10.42;100.00;102369.25;6218145;23;20455;-80
2023/10/16 09:03:49;;;;;;;2.00;1.85;;;;;;;10.52;100.00;102359.63;6218450;23;20451;-79
2023/10/16 09:06:23;;;;;;;7.10;2.13;;;;;;;10.57;100.00;102367.19;6217848;23;20067;-79
2023/10/16 09:08:50;;;;;;;3.38;2.10;;;;;;;10.63;100.00;102366.34;6192219;23;20023;-79
2023/10/16 09:11:19;;;;;;;7.65;1.85;;;;;;;10.66;100.00;102367.47;6191355;23;20447;-77
2023/10/16 09:13:53;;;;;;;5.90;1.60;;;;;;;10.69;100.00;102378.06;6217888;23;20025;-76
2023/10/16 09:16:23;;;;;;;4.53;2.00;;;;;;;10.73;100.00;102366.63;6217608;23;20029;-77
2023/10/16 09:18:53;;;;;;;2.97;1.30;;;;;;;10.72;98.94;102368.53;6191183;23;20045;-78
2023/10/16 09:21:28;;;;;;;2.92;1.45;;;;;;;10.77;98.90;102368.09;6218041;23;20013;-79
2023/10/16 09:23:59;;;;;;;4.22;1.42;;;;;;;10.82;98.55;102369.53;6166995;23;20123;-78
2023/10/16 09:26:32;;;;;;;3.00;1.10;;;;;;;10.87;98.61;102371.75;6190469;23;20017;-82
2023/10/16 09:29:13;;;;;;;2.85;1.38;;;;;;;10.94;97.56;102375.06;6192267;23;20052;-78
2023/10/16 09:31:47;;;;;;;1.10;1.00;;;;;;;10.99;96.44;102377.28;6191403;23;20080;-79
2023/10/16 09:34:17;;;;;;;2.33;0.98;;;;;;;11.03;96.03;102375.31;6191483;23;20017;-79
2023/10/16 09:36:48;;;;;;;1.00;0.95;;;;;;;11.02;94.55;102379.13;6218356;23;20477;-78
2023/10/16 09:39:18;;;;;;;1.40;1.10;;;;;;;11.03;94.12;102378.00;6217810;23;20025;-78
2023/10/16 09:41:51;;;;;;;2.25;1.00;;;;;;;11.08;94.14;102376.03;6217811;23;20044;-79
2023/10/16 09:44:36;;;;;;;3.33;1.10;;;;;;;11.13;92.98;102375.56;6218264;23;20017;-79
2023/10/16 09:47:25;;;;;;;7.57;1.10;;;;;;;11.12;93.84;102374.06;6218492;23;20013;-78
2023/10/16 09:49:50;;;;;;;2.35;1.05;;;;;;;11.27;93.54;102375.34;6218424;23;20032;-79
2023/10/16 09:52:21;;;;;;;3.42;1.20;;;;;;;11.53;94.09;102381.81;6217961;23;20041;-78
2023/10/16 09:54:48;;;;;;;2.58;1.27;;;;;;;11.71;92.43;102379.59;6218020;23;20017;-78
2023/10/16 09:57:22;;;;;;;1.27;1.10;;;;;;;11.87;91.97;102371.72;6217644;23;20084;-78
2023/10/16 09:59:54;;;;;;;2.65;1.17;;;;;;;11.98;91.75;102376.88;6191867;23;20407;-78
2023/10/16 10:02:25;;;;;;;;;;;;;;;12.10;92.95;102370.16;6218458;23;20379;-78
2023/10/16 10:05:00;;;;;;;1.40;1.30;;;;;;;12.16;90.93;102368.53;6218716;23;19921;-80
2023/10/16 10:07:38;;;;;;;5.35;1.40;;;;;;;12.20;90.03;102372.63;6191099;23;20044;-79
2023/10/16 10:11:05;;;;;;;4.68;0.93;;;;;;;12.27;87.48;102372.50;6217334;23;20081;-77
2023/10/16 10:12:57;;;;;;;1.02;0.90;;;;;;;12.34;84.70;102377.69;6202612;23;20092;-79
2023/10/16 10:15:33;;;;;;;2.72;0.63;;;;;;;12.38;84.05;102369.63;6217596;23;20049;-78
2023/10/16 10:18:31;;;;;;;0.75;0.75;;;;;;;12.42;84.13;102370.28;6218591;23;20442;-78
2023/10/16 10:20:58;;;;;;;5.25;1.08;;;;;;;12.42;83.36;102372.19;6218524;23;20084;-77
2023/10/16 10:23:26;;;;;;;1.20;0.70;;;;;;;12.42;82.34;102369.53;6217767;23;20731;-78
2023/10/16 10:25:53;;;;;;;4.65;0.77;;;;;;;12.51;82.67;102365.13;6190459;23;20092;-78
2023/10/16 10:28:32;;;;;;;2.25;0.88;;;;;;;12.56;80.61;102363.91;6217606;23;20024;-78
2023/10/16 10:31:02;;;;;;;3.30;0.80;;;;;;;12.60;80.63;102362.66;6191277;23;20078;-79
2023/10/16 10:33:42;;;;;;;1.50;0.90;;;;;;;12.59;78.95;102363.06;6216177;23;20021;-78
2023/10/16 10:36:28;;;;;;;7.65;2.35;;;;;;;12.66;80.30;102376.28;6191215;23;20027;-77
2023/10/16 10:39:20;;;;;;;1.13;0.70;;;;;;;12.75;79.12;102370.38;6217691;23;20021;-78
2023/10/16 10:41:51;;;;;;;1.40;0.80;;;;;;;12.81;78.26;102372.13;6191766;23;20032;-78
2023/10/16 10:44:19;;;;;;;0.60;0.60;;;;;;;12.89;77.29;102378.06;6217662;23;20017;-76
2023/10/16 10:46:53;;;;;;;1.33;0.60;;;;;;;12.91;76.68;102373.06;6218403;23;20192;-78
2023/10/16 10:49:33;;;;;;;0.60;0.60;;;;;;;12.97;78.08;102369.50;6217898;23;20013;-78
2023/10/16 10:52:06;;;;;;;1.70;0.90;;;;;;;13.02;76.27;102368.25;6191325;23;20482;-78
2023/10/16 10:54:34;;;;;;;0.75;0.70;;;;;;;13.08;77.19;102363.91;6217283;23;20025;-78
2023/10/16 10:57:09;;;;;;;1.05;0.60;;;;;;;13.08;75.69;102366.59;6191629;23;20021;-78
2023/10/16 10:59:41;;;;;;;3.92;0.70;;;;;;;13.15;75.60;102368.34;6191210;23;20458;-79
2023/10/16 11:05:08;;;;;;;2.33;0.80;;;;;;;13.26;75.81;102356.22;6218345;23;19965;-76
2023/10/16 11:07:45;;;;;;;3.70;0.82;;;;;;;13.27;76.21;102354.31;6217463;23;20017;-79
2023/10/16 11:10:13;;;;;;;1.90;0.47;;;;;;;13.29;76.01;102360.00;6190234;23;20111;-79
2023/10/16 11:12:40;;;;;;;1.27;0.77;;;;;;;13.31;76.21;102361.09;6190790;23;20025;-78
2023/10/16 11:15:10;;;;;;;2.38;0.50;;;;;;;13.34;75.16;102359.50;6190478;23;20025;-78
2023/10/16 11:17:40;;;;;;;1.70;0.80;;;;;;;13.30;72.66;102359.56;6190592;23;20048;-79
2023/10/16 11:22:46;;;;;;;1.85;0.70;;;;;;;13.29;72.83;102355.41;6217520;23;20024;-79
2023/10/16 11:25:14;;;;;;;1.75;0.75;;;;;;;13.30;72.04;102353.47;6190901;23;20017;-79
2023/10/16 11:27:42;;;;;;;2.38;0.60;;;;;;;13.36;71.57;102351.81;6215651;23;20095;-78
2023/10/16 11:30:13;;;;;;;4.05;0.85;;;;;;;13.43;72.62;102343.63;6217203;23;20443;-80
2023/10/16 11:32:48;;;;;;;4.78;1.15;;;;;;;13.41;71.79;102347.88;6190477;23;20009;-79
2023/10/16 11:35:19;;;;;;;7.70;1.05;;;;;;;13.42;72.94;102344.78;6217292;23;20455;-80
2023/10/16 11:37:55;;;;;;;1.77;0.60;;;;;;;13.46;71.98;102336.66;6217151;23;20020;-80
2023/10/16 11:40:33;;;;;;;1.88;0.60;;;;;;;13.51;72.07;102331.56;6217440;23;20072;-80
2023/10/16 11:43:02;;;;;;;4.68;1.30;;;;;;;13.61;72.70;102316.38;6191595;23;20096;-79
2023/10/16 11:45:33;;;;;;;1.35;0.70;;;;;;;13.60;71.23;102326.34;6164912;23;20424;-80
2023/10/16 11:51:10;;;;;;;3.53;0.88;;;;;;;13.63;71.52;102311.38;6218594;23;20023;-79
2023/10/16 11:53:37;;;;;;;1.35;0.80;;;;;;;13.53;71.71;102321.19;6190062;23;20049;-79
2023/10/16 11:56:05;;;;;;;2.55;0.90;;;;;;;13.49;71.80;102312.50;6190502;23;20504;-80
2023/10/16 11:58:31;;;;;;;1.75;0.73;;;;;;;13.57;70.76;102321.09;6190446;23;20440;-78
2023/10/16 12:01:08;;;;;;;0.95;0.80;;;;;;;13.63;70.35;102312.13;6191258;23;20088;-76
2023/10/16 12:03:55;;;;;;;1.60;0.80;;;;;;;13.72;70.24;102306.16;6217403;23;20017;-79
2023/10/16 12:06:22;;;;;;;1.40;0.75;;;;;;;13.82;70.30;102307.81;6164865;23;20043;-79
2023/10/16 12:08:48;;;;;;;4.03;0.90;;;;;;;13.79;69.80;102300.63;6190948;23;20023;-79
2023/10/16 12:11:15;;;;;;;2.58;0.80;;;;;;;13.82;68.13;102299.78;6216862;23;20413;-79
2023/10/16 12:13:42;;;;;;;2.90;0.70;;;;;;;13.84;67.93;102299.34;6190359;23;20021;-79
2023/10/16 12:16:09;;;;;;;5.43;0.90;;;;;;;13.89;68.53;102299.59;6216941;23;20432;-79
2023/10/16 12:18:56;;;;;;;1.45;0.52;;;;;;;13.96;68.70;102296.72;6196787;23;20526;-79
2023/10/16 12:21:23;;;;;;;3.00;0.82;;;;;;;13.95;68.99;102289.88;6217804;23;20023;-79
2023/10/16 12:23:50;;;;;;;1.63;0.80;;;;;;;14.02;70.77;102296.91;6218665;23;20017;-79
2023/10/16 12:26:17;;;;;;;1.40;1.00;;;;;;;14.05;69.24;102296.06;6191645;23;20028;-78
2023/10/16 12:28:44;;;;;;;4.63;0.88;;;;;;;14.01;69.39;102293.50;6218671;23;20535;-78
2023/10/16 12:31:12;;;;;;;2.85;0.90;;;;;;;14.03;68.57;102293.81;6192196;23;20124;-77
2023/10/16 12:33:38;;;;;;;2.15;1.00;;;;;;;14.07;69.61;102291.03;6218264;23;20498;-77
2023/10/16 12:36:08;;;;;;;2.80;1.58;;;;;;;14.01;67.34;102279.34;6216541;23;20047;-76
2023/10/16 12:38:34;;;;;;;6.50;0.88;;;;;;;13.96;66.90;102279.91;6191350;23;20426;-79
2023/10/16 12:41:05;;;;;;;2.63;1.13;;;;;;;13.97;67.53;102281.41;6218953;23;20439;-78
2023/10/16 12:43:31;;;;;;;1.88;1.05;;;;;;;13.93;67.43;102275.41;6218645;23;20017;-79
2023/10/16 12:45:59;;;;;;;3.25;0.63;;;;;;;13.94;68.92;102272.31;6166651;23;20017;-78
2023/10/16 12:48:29;;;;;;;4.68;1.42;;;;;;;13.90;67.18;102268.22;6191043;23;20017;-78
2023/10/16 12:51:07;;;;;;;2.55;1.10;;;;;;;13.95;66.78;102273.81;6218658;23;20072;-79
2023/10/16 12:53:38;;;;;;;3.42;1.13;;;;;;;14.01;66.97;102266.72;6192727;23;20355;-79
2023/10/16 12:56:06;;;;;;;3.30;1.13;;;;;;;14.02;67.46;102267.47;6218400;23;20465;-78
2023/10/16 12:58:34;;;;;;;1.25;0.90;;;;;;;14.04;66.97;102270.47;6218455;23;20021;-78
2023/10/16 13:01:04;;;;;;;2.85;0.80;;;;;;;14.01;67.44;102268.66;6218927;23;20020;-79
2023/10/16 13:03:33;;;;;;;3.95;1.23;;;;;;;14.03;65.71;102269.72;6191610;23;20104;-79
2023/10/16 13:06:05;;;;;;;5.63;1.23;;;;;;;14.05;66.13;102265.88;6218213;23;20045;-79
2023/10/16 13:08:35;;;;;;;4.38;1.00;;;;;;;14.10;66.89;102266.09;6218418;23;20173;-79
2023/10/16 13:11:02;;;;;;;3.25;0.82;;;;;;;14.11;66.87;102264.91;6191908;23;20080;-82
2023/10/16 13:13:28;;;;;;;3.22;0.80;;;;;;;14.16;66.18;102267.06;6217954;23;20683;-81
2023/10/16 13:15:57;;;;;;;0.85;0.82;;;;;;;14.17;65.75;102267.81;6218791;23;20076;-83
2023/10/16 13:18:28;;;;;;;4.43;1.10;;;;;;;14.07;63.37;102269.63;6190288;23;21063;-79
2023/10/16 13:21:13;;;;;;;1.08;0.82;;;;;;;14.04;63.78;102270.47;6192551;23;20028;-81
2023/10/16 13:23:40;;;;;;;4.47;1.27;;;;;;;14.10;63.84;102271.44;6218794;23;20049;-81